sensor_id;sensor_type;location;lat;lon;timestamp;pressure;altitude;pressure_sealevel;temperature;humidity
23318;BME280;11831;55.918;37.746;2023-09-12T10:53:15;99850.41;;;27.54;0.00
23318;BME280;11831;55.918;37.746;2023-09-12T10:55:42;99847.94;;;27.23;0.00
23318;BME280;11831;55.918;37.746;2023-09-12T10:58:17;99841.78;;;26.71;0.00
23318;BME280;11831;55.918;37.746;2023-09-12T11:01:21;99842.19;;;29.00;0.00
23318;BME280;11831;55.918;37.746;2023-09-12T11:03:47;99846.53;;;30.23;0.00
23318;BME280;11831;55.918;37.746;2023-09-12T11:06:22;99838.44;;;29.29;0.00
23318;BME280;11831;55.918;37.746;2023-09-12T11:11:43;99834.66;;;29.09;0.00
23318;BME280;11831;55.918;37.746;2023-09-12T11:14:10;99826.53;;;30.26;0.00
23318;BME280;11831;55.918;37.746;2023-09-12T11:16:36;99837.97;;;30.12;0.00
23318;BME280;11831;55.918;37.746;2023-09-12T11:21:43;99830.72;;;30.76;0.00
23318;BME280;11831;55.918;37.746;2023-09-12T11:24:10;99838.09;;;29.91;0.00
23318;BME280;11831;55.918;37.746;2023-09-12T11:29:21;99832.00;;;29.98;0.00
23318;BME280;11831;55.918;37.746;2023-09-12T11:34:19;99831.81;;;32.97;0.00
23318;BME280;11831;55.918;37.746;2023-09-12T11:36:46;99826.84;;;32.64;0.00
23318;BME280;11831;55.918;37.746;2023-09-12T11:39:27;99833.87;;;33.46;0.00
23318;BME280;11831;55.918;37.746;2023-09-12T11:41:55;99834.16;;;34.88;0.00
23318;BME280;11831;55.918;37.746;2023-09-12T11:44:22;99830.25;;;33.42;0.00
23318;BME280;11831;55.918;37.746;2023-09-12T11:46:49;99829.41;;;31.64;0.00
23318;BME280;11831;55.918;37.746;2023-09-12T11:49:17;99825.44;;;34.52;0.00
23318;BME280;11831;55.918;37.746;2023-09-12T11:51:53;99825.06;;;33.18;0.00
23318;BME280;11831;55.918;37.746;2023-09-12T11:54:24;99818.78;;;33.97;0.00
23318;BME280;11831;55.918;37.746;2023-09-12T11:56:51;99829.28;;;32.47;0.00
23318;BME280;11831;55.918;37.746;2023-09-12T11:59:23;99815.03;;;34.82;0.00
23318;BME280;11831;55.918;37.746;2023-09-12T12:01:49;99824.22;;;34.19;0.00
23318;BME280;11831;55.918;37.746;2023-09-12T12:04:16;99816.03;;;33.44;0.00
23318;BME280;11831;55.918;37.746;2023-09-12T12:06:43;99825.37;;;36.57;0.00
23318;BME280;11831;55.918;37.746;2023-09-12T12:09:10;99818.69;;;36.83;0.00
23318;BME280;11831;55.918;37.746;2023-09-12T12:11:36;99817.47;;;37.87;0.00
23318;BME280;11831;55.918;37.746;2023-09-12T12:14:16;99814.22;;;36.50;0.00
23318;BME280;11831;55.918;37.746;2023-09-12T12:16:44;99817.91;;;37.75;0.00
23318;BME280;11831;55.918;37.746;2023-09-12T12:19:11;99809.94;;;36.99;0.00
23318;BME280;11831;55.918;37.746;2023-09-12T12:21:41;99813.53;;;37.74;0.00
23318;BME280;11831;55.918;37.746;2023-09-12T12:24:13;99816.25;;;37.99;0.00
23318;BME280;11831;55.918;37.746;2023-09-12T12:26:43;99815.84;;;37.94;0.00
23318;BME280;11831;55.918;37.746;2023-09-12T12:29:10;99816.19;;;38.10;0.00
23318;BME280;11831;55.918;37.746;2023-09-12T12:31:40;99811.94;;;37.66;0.00
23318;BME280;11831;55.918;37.746;2023-09-12T12:34:06;99816.94;;;36.36;0.00
23318;BME280;11831;55.918;37.746;2023-09-12T12:36:32;99816.06;;;36.18;0.00
23318;BME280;11831;55.918;37.746;2023-09-12T12:38:59;99806.78;;;37.11;0.00
23318;BME280;11831;55.918;37.746;2023-09-12T12:41:29;99813.44;;;37.96;0.00
23318;BME280;11831;55.918;37.746;2023-09-12T12:43:57;99802.75;;;38.71;0.00
23318;BME280;11831;55.918;37.746;2023-09-12T12:46:27;99798.97;;;38.99;0.00
23318;BME280;11831;55.918;37.746;2023-09-12T12:48:54;99803.41;;;38.23;0.00
23318;BME280;11831;55.918;37.746;2023-09-12T12:56:23;99790.25;;;38.27;0.00
23318;BME280;11831;55.918;37.746;2023-09-12T12:58:55;99797.78;;;39.86;0.00
23318;BME280;11831;55.918;37.746;2023-09-12T13:01:23;99790.59;;;39.85;0.00
23318;BME280;11831;55.918;37.746;2023-09-12T13:03:50;99803.78;;;38.25;0.00
23318;BME280;11831;55.918;37.746;2023-09-12T13:06:17;99796.44;;;38.52;0.00
23318;BME280;11831;55.918;37.746;2023-09-12T13:08:45;99795.22;;;37.48;0.00
23318;BME280;11831;55.918;37.746;2023-09-12T13:11:13;99778.09;;;37.46;0.00
23318;BME280;11831;55.918;37.746;2023-09-12T13:13:41;99793.81;;;36.21;0.00
23318;BME280;11831;55.918;37.746;2023-09-12T13:16:13;99795.59;;;37.04;0.00
23318;BME280;11831;55.918;37.746;2023-09-12T13:18:39;99790.03;;;37.04;0.00
23318;BME280;11831;55.918;37.746;2023-09-12T13:21:06;99792.34;;;36.49;0.00
23318;BME280;11831;55.918;37.746;2023-09-12T13:23:37;99793.47;;;35.57;0.00
23318;BME280;11831;55.918;37.746;2023-09-12T13:26:04;99788.47;;;37.32;0.00
23318;BME280;11831;55.918;37.746;2023-09-12T13:28:31;99790.38;;;37.81;0.00
23318;BME280;11831;55.918;37.746;2023-09-12T13:30:58;99795.22;;;37.23;0.00
23318;BME280;11831;55.918;37.746;2023-09-12T13:33:24;99792.25;;;38.86;0.00
23318;BME280;11831;55.918;37.746;2023-09-12T13:38:17;99791.97;;;36.54;0.00
23318;BME280;11831;55.918;37.746;2023-09-12T13:40:45;99792.25;;;36.24;0.00
23318;BME280;11831;55.918;37.746;2023-09-12T13:43:12;99796.88;;;35.91;0.00
23318;BME280;11831;55.918;37.746;2023-09-12T13:45:38;99782.63;;;36.03;0.00
23318;BME280;11831;55.918;37.746;2023-09-12T13:48:06;99787.25;;;37.00;0.00
23318;BME280;11831;55.918;37.746;2023-09-12T13:50:32;99791.75;;;35.35;0.00
23318;BME280;11831;55.918;37.746;2023-09-12T13:52:59;99785.13;;;36.33;0.00
23318;BME280;11831;55.918;37.746;2023-09-12T13:55:26;99782.72;;;35.52;0.00
23318;BME280;11831;55.918;37.746;2023-09-12T13:57:52;99774.72;;;34.96;0.00
23318;BME280;11831;55.918;37.746;2023-09-12T14:00:19;99773.25;;;34.68;0.00
23318;BME280;11831;55.918;37.746;2023-09-12T14:02:45;99789.94;;;33.48;0.00
23318;BME280;11831;55.918;37.746;2023-09-12T14:05:12;99759.81;;;32.32;0.00
23318;BME280;11831;55.918;37.746;2023-09-12T14:07:39;99749.16;;;34.05;0.00
23318;BME280;11831;55.918;37.746;2023-09-12T14:10:07;99792.78;;;35.78;0.00
23318;BME280;11831;55.918;37.746;2023-09-12T14:12:33;99754.22;;;35.11;0.00
23318;BME280;11831;55.918;37.746;2023-09-12T14:15:00;99716.50;;;35.10;0.00
23318;BME280;11831;55.918;37.746;2023-09-12T14:17:27;99763.09;;;34.42;0.00
23318;BME280;11831;55.918;37.746;2023-09-12T14:19:55;99768.75;;;34.19;0.00
23318;BME280;11831;55.918;37.746;2023-09-12T14:22:21;99788.13;;;33.86;0.00
23318;BME280;11831;55.918;37.746;2023-09-12T14:24:47;99788.72;;;33.99;0.00
23318;BME280;11831;55.918;37.746;2023-09-12T14:27:14;99799.50;;;34.07;0.00
23318;BME280;11831;55.918;37.746;2023-09-12T14:29:40;99805.53;;;33.83;0.00
23318;BME280;11831;55.918;37.746;2023-09-12T14:32:06;99782.22;;;34.54;0.00
23318;BME280;11831;55.918;37.746;2023-09-12T14:34:33;99789.53;;;33.46;0.00
23318;BME280;11831;55.918;37.746;2023-09-12T14:36:59;99788.19;;;33.14;0.00
23318;BME280;11831;55.918;37.746;2023-09-12T14:39:25;99781.94;;;34.30;0.00
23318;BME280;11831;55.918;37.746;2023-09-12T14:41:52;99791.22;;;32.63;0.00
23318;BME280;11831;55.918;37.746;2023-09-12T14:44:18;99787.19;;;34.35;0.00
23318;BME280;11831;55.918;37.746;2023-09-12T14:46:45;99784.47;;;33.52;0.00
23318;BME280;11831;55.918;37.746;2023-09-12T14:49:11;99788.03;;;32.80;0.00
23318;BME280;11831;55.918;37.746;2023-09-12T14:51:37;99783.09;;;33.95;0.00
23318;BME280;11831;55.918;37.746;2023-09-12T14:54:04;99798.06;;;31.09;0.00
23318;BME280;11831;55.918;37.746;2023-09-12T14:56:31;99766.16;;;31.94;0.00
23318;BME280;11831;55.918;37.746;2023-09-12T14:58:57;99789.13;;;32.56;0.00
23318;BME280;11831;55.918;37.746;2023-09-12T15:01:24;99787.50;;;33.20;0.00
23318;BME280;11831;55.918;37.746;2023-09-12T15:03:53;99791.28;;;32.66;0.00
23318;BME280;11831;55.918;37.746;2023-09-12T15:06:20;99793.97;;;30.87;0.00
23318;BME280;11831;55.918;37.746;2023-09-12T15:08:46;99803.72;;;31.79;0.00
23318;BME280;11831;55.918;37.746;2023-09-12T15:11:12;99796.81;;;31.54;0.00
23318;BME280;11831;55.918;37.746;2023-09-12T15:13:39;99800.03;;;31.09;0.00
23318;BME280;11831;55.918;37.746;2023-09-12T15:16:05;99812.97;;;29.20;0.00
23318;BME280;11831;55.918;37.746;2023-09-12T15:18:31;99803.00;;;29.64;0.00
23318;BME280;11831;55.918;37.746;2023-09-12T15:20:58;99809.87;;;29.21;0.00
23318;BME280;11831;55.918;37.746;2023-09-12T15:23:24;99807.00;;;28.60;0.00
23318;BME280;11831;55.918;37.746;2023-09-12T15:25:51;99811.13;;;26.77;0.00
23318;BME280;11831;55.918;37.746;2023-09-12T15:28:17;99812.59;;;26.31;0.00
23318;BME280;11831;55.918;37.746;2023-09-12T15:30:44;99800.00;;;27.29;0.00
23318;BME280;11831;55.918;37.746;2023-09-12T15:33:11;99811.37;;;26.93;0.00
23318;BME280;11831;55.918;37.746;2023-09-12T15:35:37;99801.63;;;26.57;0.00
23318;BME280;11831;55.918;37.746;2023-09-12T15:38:04;99808.59;;;26.46;0.00
23318;BME280;11831;55.918;37.746;2023-09-12T15:40:32;99808.00;;;25.58;0.00
23318;BME280;11831;55.918;37.746;2023-09-12T15:42:59;99802.19;;;24.80;0.00
23318;BME280;11831;55.918;37.746;2023-09-12T15:45:25;99800.56;;;25.01;0.00
23318;BME280;11831;55.918;37.746;2023-09-12T15:47:51;99816.47;;;24.99;0.00
23318;BME280;11831;55.918;37.746;2023-09-12T15:50:17;99815.38;;;24.33;0.00
23318;BME280;11831;55.918;37.746;2023-09-12T15:52:44;99809.84;;;23.75;0.00
23318;BME280;11831;55.918;37.746;2023-09-12T15:55:10;99819.66;;;23.90;0.00
23318;BME280;11831;55.918;37.746;2023-09-12T15:57:37;99817.78;;;23.63;0.00
23318;BME280;11831;55.918;37.746;2023-09-12T16:00:05;99823.59;;;23.42;0.00
23318;BME280;11831;55.918;37.746;2023-09-12T16:02:38;99828.94;;;23.20;0.00
23318;BME280;11831;55.918;37.746;2023-09-12T16:05:05;99830.00;;;22.91;0.00
23318;BME280;11831;55.918;37.746;2023-09-12T16:07:32;99832.38;;;22.47;0.00
23318;BME280;11831;55.918;37.746;2023-09-12T16:09:58;99833.50;;;22.46;0.00
23318;BME280;11831;55.918;37.746;2023-09-12T16:12:26;99837.84;;;22.47;0.00
23318;BME280;11831;55.918;37.746;2023-09-12T16:14:56;99838.88;;;22.32;0.00
23318;BME280;11831;55.918;37.746;2023-09-12T16:17:23;99838.25;;;21.79;0.00
23318;BME280;11831;55.918;37.746;2023-09-12T16:19:49;99841.41;;;21.86;0.00
23318;BME280;11831;55.918;37.746;2023-09-12T16:22:15;99836.81;;;21.09;0.00
23318;BME280;11831;55.918;37.746;2023-09-12T16:24:42;99837.41;;;21.35;0.00
23318;BME280;11831;55.918;37.746;2023-09-12T16:27:08;99840.41;;;21.05;0.00
23318;BME280;11831;55.918;37.746;2023-09-12T16:29:35;99837.53;;;20.96;0.00
23318;BME280;11831;55.918;37.746;2023-09-12T16:32:02;99827.84;;;20.85;0.00
23318;BME280;11831;55.918;37.746;2023-09-12T16:34:29;99833.56;;;20.55;0.00
23318;BME280;11831;55.918;37.746;2023-09-12T16:36:55;99835.00;;;19.98;0.00
23318;BME280;11831;55.918;37.746;2023-09-12T16:39:22;99832.09;;;20.28;0.00
23318;BME280;11831;55.918;37.746;2023-09-12T16:41:48;99830.03;;;20.10;0.00
23318;BME280;11831;55.918;37.746;2023-09-12T16:44:14;99828.66;;;20.12;0.00
23318;BME280;11831;55.918;37.746;2023-09-12T16:46:41;99834.22;;;19.87;0.00
23318;BME280;11831;55.918;37.746;2023-09-12T16:49:07;99832.34;;;19.82;0.00
23318;BME280;11831;55.918;37.746;2023-09-12T16:51:33;99833.63;;;20.00;0.00
23318;BME280;11831;55.918;37.746;2023-09-12T16:53:59;99836.19;;;19.76;0.00
23318;BME280;11831;55.918;37.746;2023-09-12T16:56:26;99835.88;;;19.83;0.00
23318;BME280;11831;55.918;37.746;2023-09-12T16:58:52;99840.19;;;19.84;0.00
23318;BME280;11831;55.918;37.746;2023-09-12T17:01:19;99834.88;;;19.59;0.00
23318;BME280;11831;55.918;37.746;2023-09-12T17:03:45;99837.72;;;19.18;0.00
23318;BME280;11831;55.918;37.746;2023-09-12T17:06:11;99834.97;;;19.33;0.00
23318;BME280;11831;55.918;37.746;2023-09-12T17:08:37;99847.72;;;19.22;0.00
23318;BME280;11831;55.918;37.746;2023-09-12T17:11:04;99838.47;;;19.39;0.00
23318;BME280;11831;55.918;37.746;2023-09-12T17:13:30;99843.94;;;19.13;0.00
23318;BME280;11831;55.918;37.746;2023-09-12T17:15:56;99840.97;;;19.10;0.00
23318;BME280;11831;55.918;37.746;2023-09-12T17:18:22;99843.97;;;19.08;0.00
23318;BME280;11831;55.918;37.746;2023-09-12T17:20:49;99849.13;;;18.95;0.00
23318;BME280;11831;55.918;37.746;2023-09-12T17:23:15;99851.03;;;18.89;0.00
23318;BME280;11831;55.918;37.746;2023-09-12T17:25:41;99846.69;;;18.88;0.00
23318;BME280;11831;55.918;37.746;2023-09-12T17:28:08;99841.56;;;18.81;0.00
23318;BME280;11831;55.918;37.746;2023-09-12T17:30:34;99839.13;;;18.65;0.00
23318;BME280;11831;55.918;37.746;2023-09-12T17:33:00;99846.47;;;18.69;0.00
23318;BME280;11831;55.918;37.746;2023-09-12T17:35:27;99848.34;;;18.69;0.00
23318;BME280;11831;55.918;37.746;2023-09-12T17:37:53;99845.59;;;18.58;0.00
23318;BME280;11831;55.918;37.746;2023-09-12T17:40:20;99848.59;;;18.62;0.00
23318;BME280;11831;55.918;37.746;2023-09-12T17:42:47;99853.72;;;18.53;0.00
23318;BME280;11831;55.918;37.746;2023-09-12T17:45:13;99845.31;;;18.50;0.00
23318;BME280;11831;55.918;37.746;2023-09-12T17:47:40;99849.34;;;18.27;0.00
23318;BME280;11831;55.918;37.746;2023-09-12T17:50:06;99862.06;;;18.26;0.00
23318;BME280;11831;55.918;37.746;2023-09-12T17:52:33;99856.44;;;18.38;0.00
23318;BME280;11831;55.918;37.746;2023-09-12T17:54:59;99855.03;;;18.25;0.00
23318;BME280;11831;55.918;37.746;2023-09-12T17:57:25;99842.59;;;18.24;0.00
23318;BME280;11831;55.918;37.746;2023-09-12T17:59:52;99858.28;;;18.22;0.00
23318;BME280;11831;55.918;37.746;2023-09-12T18:02:21;99853.12;;;18.11;0.00
23318;BME280;11831;55.918;37.746;2023-09-12T18:04:47;99848.53;;;18.16;0.00
23318;BME280;11831;55.918;37.746;2023-09-12T18:07:13;99847.44;;;18.12;0.00
23318;BME280;11831;55.918;37.746;2023-09-12T18:09:39;99852.53;;;18.04;0.00
23318;BME280;11831;55.918;37.746;2023-09-12T18:12:06;99849.56;;;18.00;0.00
23318;BME280;11831;55.918;37.746;2023-09-12T18:14:32;99851.72;;;17.93;0.00
23318;BME280;11831;55.918;37.746;2023-09-12T18:16:58;99843.34;;;17.94;0.00
23318;BME280;11831;55.918;37.746;2023-09-12T18:19:25;99852.78;;;17.92;0.00
23318;BME280;11831;55.918;37.746;2023-09-12T18:21:51;99859.56;;;17.89;0.00
